International Virtual Aviation Organisation

Eastern Europe and Northern Asia MCD

 
URKK 121230Z 07002MPS 020V130 9999 SCT019 12/08 Q1021 R23L/CLRD70 NOSIG RMK QFE763
QNH:(hPa/inHg/mmHg)1021 / 30.15 / 766
QFE:(hPa/inHg/mmHg)1017 / 30.02 / 763
Temperature12
Dew Point8
Visibility> 10000
Weather
Cloud CoverSCT (1900);
Transition Height900 m./3100 ft.
Transition LevelFL40
SQUAWK